Time;durP1;ratioP1;P1;durP2;ratioP2;P2;SDS_P1;SDS_P2;PMS_P1;PMS_P2;Temp;Humidity;BMP_temperature;BMP_pressure;BME280_temperature;BME280_humidity;BME280_pressure;Samples;Min_cycle;Max_cycle;Signal;HPM_P1;HPM_P2
2023/11/11 00:02:01;;;;;;;0.00;0.00;;;20.50;50.30;;;;;;5012290;28;20209;-52
2023/11/11 00:04:32;;;;;;;0.00;0.00;;;20.50;50.30;;;;;;5012671;28;20228;-51
2023/11/11 00:07:03;;;;;;;0.00;0.00;;;20.60;50.30;;;;;;5012044;28;20221;-52
2023/11/11 00:09:33;;;;;;;0.00;0.00;;;20.60;50.30;;;;;;5012287;28;20205;-53
2023/11/11 00:12:07;;;;;;;0.00;0.00;;;20.60;50.30;;;;;;5012183;28;20832;-54
2023/11/11 00:14:38;;;;;;;0.00;0.00;;;20.60;50.40;;;;;;5012427;28;20203;-52
2023/11/11 00:17:09;;;;;;;0.00;0.00;;;20.60;50.40;;;;;;5012250;28;20220;-51
2023/11/11 00:19:40;;;;;;;0.00;0.00;;;20.70;50.50;;;;;;5012416;28;20593;-52
2023/11/11 00:22:11;;;;;;;0.00;0.00;;;20.70;50.40;;;;;;5012494;28;20579;-49
2023/11/11 00:24:42;;;;;;;0.00;0.00;;;20.70;50.40;;;;;;5011889;28;20200;-51
2023/11/11 00:27:16;;;;;;;0.00;0.00;;;20.70;50.50;;;;;;5012258;28;20228;-51
2023/11/11 00:29:47;;;;;;;0.10;0.10;;;20.80;50.50;;;;;;5011784;28;20200;-50
2023/11/11 00:32:17;;;;;;;0.10;0.10;;;20.80;50.60;;;;;;5011706;28;20197;-50
2023/11/11 00:34:48;;;;;;;0.03;0.03;;;20.80;50.50;;;;;;5011969;28;20193;-52
2023/11/11 00:37:19;;;;;;;0.10;0.10;;;20.90;51.10;;;;;;5011790;28;20225;-52
2023/11/11 00:39:50;;;;;;;0.00;0.00;;;20.90;50.50;;;;;;5011973;28;20255;-50
2023/11/11 00:42:23;;;;;;;0.10;0.10;;;20.90;50.40;;;;;;5011713;28;20208;-53
2023/11/11 00:44:54;;;;;;;0.10;0.10;;;21.00;50.40;;;;;;5011917;28;20193;-53
2023/11/11 00:47:24;;;;;;;0.10;0.10;;;21.00;50.40;;;;;;5011880;28;20368;-55
2023/11/11 00:49:56;;;;;;;0.00;0.00;;;21.00;50.40;;;;;;5012025;28;20645;-54
2023/11/11 00:52:27;;;;;;;0.00;0.00;;;21.10;50.40;;;;;;5011666;28;20201;-53
2023/11/11 00:54:58;;;;;;;0.00;0.00;;;21.10;50.40;;;;;;5029148;28;20195;-54
2023/11/11 00:57:30;;;;;;;0.00;0.00;;;21.10;50.50;;;;;;5031262;28;20235;-54
2023/11/11 01:00:01;;;;;;;0.00;0.00;;;21.10;50.40;;;;;;5020058;28;20201;-51
2023/11/11 01:02:32;;;;;;;0.10;0.10;;;21.20;50.50;;;;;;5011396;28;20203;-53
2023/11/11 01:05:02;;;;;;;0.00;0.00;;;21.20;50.50;;;;;;5012915;28;20208;-54
2023/11/11 01:07:33;;;;;;;0.00;0.00;;;21.20;50.50;;;;;;5016013;28;20231;-50
2023/11/11 01:10:05;;;;;;;0.00;0.00;;;21.20;50.50;;;;;;5015542;28;20207;-54
2023/11/11 01:12:37;;;;;;;0.00;0.00;;;21.20;50.50;;;;;;5015526;28;20288;-52
2023/11/11 01:15:11;;;;;;;0.10;0.10;;;21.30;50.60;;;;;;5025233;28;20660;-51
2023/11/11 01:17:42;;;;;;;0.00;0.00;;;21.30;50.60;;;;;;5035178;28;20226;-53
2023/11/11 01:20:14;;;;;;;0.03;0.03;;;21.30;50.50;;;;;;5035784;28;20589;-51
2023/11/11 01:22:44;;;;;;;0.10;0.10;;;21.40;50.40;;;;;;5035510;28;20751;-56
2023/11/11 01:25:15;;;;;;;0.00;0.00;;;21.40;50.40;;;;;;5034912;28;20207;-57
2023/11/11 01:27:48;;;;;;;0.00;0.00;;;21.40;50.20;;;;;;5035425;28;20223;-51
2023/11/11 01:30:19;;;;;;;0.00;0.00;;;21.50;50.30;;;;;;5035212;28;20565;-53
2023/11/11 01:32:51;;;;;;;0.00;0.00;;;21.50;50.30;;;;;;5034906;28;20274;-54
2023/11/11 01:35:22;;;;;;;0.00;0.00;;;21.50;50.20;;;;;;5035077;28;20203;-53
2023/11/11 01:37:52;;;;;;;0.00;0.00;;;21.50;50.20;;;;;;5034541;28;20262;-52
2023/11/11 01:40:24;;;;;;;0.00;0.00;;;21.50;50.20;;;;;;5034344;28;20644;-48
2023/11/11 01:42:58;;;;;;;0.00;0.00;;;21.50;50.20;;;;;;5010046;28;20198;-54
2023/11/11 01:45:29;;;;;;;0.10;0.10;;;21.60;50.20;;;;;;5035026;28;20192;-50
2023/11/11 01:48:00;;;;;;;0.05;0.05;;;21.60;50.20;;;;;;5034514;28;20231;-53
2023/11/11 01:50:31;;;;;;;0.00;0.00;;;21.60;50.20;;;;;;5034525;28;20561;-50
2023/11/11 01:53:02;;;;;;;0.00;0.00;;;21.60;50.30;;;;;;5025669;28;20550;-53
2023/11/11 01:55:34;;;;;;;0.00;0.00;;;21.60;50.30;;;;;;5014684;28;20197;-51
2023/11/11 01:58:08;;;;;;;0.00;0.00;;;21.70;50.30;;;;;;5014907;28;20681;-51
2023/11/11 02:00:40;;;;;;;0.00;0.00;;;21.70;50.40;;;;;;5015704;28;20204;-50
2023/11/11 02:03:12;;;;;;;0.00;0.00;;;21.70;50.40;;;;;;5014644;28;20262;-53
2023/11/11 02:05:42;;;;;;;0.00;0.00;;;21.80;50.30;;;;;;5006923;28;20653;-54
2023/11/11 02:08:14;;;;;;;0.00;0.00;;;21.80;50.20;;;;;;5013022;28;20217;-57
2023/11/11 02:10:46;;;;;;;0.00;0.00;;;21.90;50.20;;;;;;5013394;28;20214;-52
2023/11/11 02:13:18;;;;;;;0.10;0.10;;;21.90;50.10;;;;;;5014057;28;20201;-53
2023/11/11 02:15:49;;;;;;;0.00;0.00;;;21.90;50.00;;;;;;5012931;28;20657;-52
2023/11/11 02:18:20;;;;;;;0.00;0.00;;;21.90;50.00;;;;;;5013994;28;20243;-56
2023/11/11 02:20:51;;;;;;;0.00;0.00;;;22.00;50.00;;;;;;5013907;28;20211;-46
2023/11/11 02:23:21;;;;;;;0.00;0.00;;;22.00;50.00;;;;;;5013872;28;20197;-49
2023/11/11 02:25:54;;;;;;;0.00;0.00;;;22.00;50.00;;;;;;5013215;28;20200;-52
2023/11/11 02:28:24;;;;;;;0.10;0.10;;;22.10;50.00;;;;;;5013442;28;20209;-49
2023/11/11 02:30:55;;;;;;;0.00;0.00;;;22.10;49.90;;;;;;5014225;28;20653;-55
2023/11/11 02:33:26;;;;;;;0.00;0.00;;;22.10;50.00;;;;;;5012770;28;20205;-55
2023/11/11 02:35:57;;;;;;;0.00;0.00;;;22.10;49.80;;;;;;5012656;28;20207;-49
2023/11/11 02:38:27;;;;;;;0.10;0.10;;;22.20;49.80;;;;;;5012869;28;20224;-56
2023/11/11 02:41:00;;;;;;;0.03;0.03;;;22.20;49.80;;;;;;5013542;28;20208;-55
2023/11/11 02:43:30;;;;;;;0.00;0.00;;;22.30;49.70;;;;;;5014971;28;20284;-55
2023/11/11 02:46:01;;;;;;;0.00;0.00;;;22.30;49.70;;;;;;5020840;28;20590;-48
2023/11/11 02:48:32;;;;;;;0.05;0.05;;;22.30;49.60;;;;;;5012466;28;20586;-54
2023/11/11 02:51:03;;;;;;;0.00;0.00;;;22.30;49.60;;;;;;5012852;28;20196;-54
2023/11/11 02:53:34;;;;;;;0.00;0.00;;;22.40;49.60;;;;;;5012555;28;20199;-56
2023/11/11 02:56:07;;;;;;;0.05;0.05;;;22.40;49.50;;;;;;5013025;28;20189;-57
2023/11/11 02:58:38;;;;;;;0.00;0.00;;;22.40;49.50;;;;;;5013049;28;20228;-56
2023/11/11 03:01:09;;;;;;;0.00;0.00;;;22.50;49.50;;;;;;5013404;28;20207;-56
2023/11/11 03:03:41;;;;;;;0.00;0.00;;;22.50;49.40;;;;;;5013070;28;20201;-56
2023/11/11 03:06:11;;;;;;;0.00;0.00;;;22.50;49.40;;;;;;5012704;28;20201;-55
2023/11/11 03:08:43;;;;;;;0.00;0.00;;;22.50;49.30;;;;;;5011685;28;20237;-55
2023/11/11 03:11:16;;;;;;;0.00;0.00;;;22.60;49.30;;;;;;5013130;28;20197;-55
2023/11/11 03:13:48;;;;;;;0.00;0.00;;;22.60;49.30;;;;;;5012595;28;20208;-54
2023/11/11 03:16:18;;;;;;;0.00;0.00;;;22.60;49.30;;;;;;5022996;28;20271;-56
2023/11/11 03:18:49;;;;;;;0.00;0.00;;;22.70;49.30;;;;;;5014882;28;20225;-51
2023/11/11 03:21:26;;;;;;;0.00;0.00;;;22.70;49.20;;;;;;5012083;28;20224;-47
2023/11/11 03:23:57;;;;;;;0.10;0.10;;;22.70;49.20;;;;;;5022440;28;20204;-52
2023/11/11 03:26:30;;;;;;;0.00;0.00;;;22.70;49.20;;;;;;5012689;28;20649;-54
2023/11/11 03:29:00;;;;;;;0.00;0.00;;;22.80;49.10;;;;;;5014500;28;20195;-46
2023/11/11 03:31:31;;;;;;;0.00;0.00;;;22.80;49.10;;;;;;5032627;28;20649;-46
2023/11/11 03:34:01;;;;;;;0.00;0.00;;;22.80;49.10;;;;;;5016225;28;20700;-50
2023/11/11 03:36:32;;;;;;;0.03;0.03;;;22.90;49.10;;;;;;5032074;28;20216;-48
2023/11/11 03:39:03;;;;;;;0.00;0.00;;;22.90;49.10;;;;;;5013723;28;20232;-46
2023/11/11 03:41:35;;;;;;;0.10;0.10;;;22.90;49.00;;;;;;5010714;28;20666;-52
2023/11/11 03:44:08;;;;;;;0.00;0.00;;;23.00;49.00;;;;;;5012332;28;20220;-49
2023/11/11 03:46:39;;;;;;;0.00;0.00;;;23.00;48.90;;;;;;5011780;28;20225;-51
2023/11/11 03:49:10;;;;;;;0.00;0.00;;;23.00;48.90;;;;;;5012156;28;20201;-56
2023/11/11 03:51:40;;;;;;;0.10;0.10;;;23.00;48.70;;;;;;5010802;28;20579;-52
2023/11/11 03:54:11;;;;;;;0.00;0.00;;;23.10;48.70;;;;;;5010236;28;20196;-51
2023/11/11 03:56:43;;;;;;;0.00;0.00;;;23.10;48.50;;;;;;5010659;28;20255;-56
2023/11/11 03:59:14;;;;;;;0.10;0.10;;;23.10;48.50;;;;;;5009789;28;20223;-57
2023/11/11 04:01:45;;;;;;;0.10;0.10;;;23.20;48.40;;;;;;5012078;28;20201;-51
2023/11/11 04:04:15;;;;;;;0.00;0.00;;;23.20;48.30;;;;;;5010882;28;20193;-55
2023/11/11 04:06:46;;;;;;;0.00;0.00;;;23.20;48.40;;;;;;5009211;28;20213;-54
2023/11/11 04:09:17;;;;;;;0.00;0.00;;;23.20;48.30;;;;;;5010971;28;20185;-55
2023/11/11 04:11:49;;;;;;;0.00;0.00;;;23.30;48.40;;;;;;5010555;28;20204;-56
2023/11/11 04:14:20;;;;;;;0.00;0.00;;;23.30;48.30;;;;;;5011212;28;20188;-56
2023/11/11 04:16:51;;;;;;;0.00;0.00;;;23.30;48.20;;;;;;5009451;28;20692;-55
2023/11/11 04:19:21;;;;;;;0.10;0.10;;;23.30;48.10;;;;;;5011379;28;20700;-55
2023/11/11 04:21:54;;;;;;;0.10;0.10;;;23.40;48.00;;;;;;5010737;28;20236;-54
2023/11/11 04:24:25;;;;;;;0.00;0.00;;;23.40;48.00;;;;;;5011706;28;20193;-54
2023/11/11 04:26:57;;;;;;;0.00;0.00;;;23.40;47.90;;;;;;5011255;28;20296;-53
2023/11/11 04:29:28;;;;;;;0.00;0.00;;;23.50;47.90;;;;;;5008269;28;20571;-55
2023/11/11 04:31:59;;;;;;;0.10;0.10;;;23.50;47.80;;;;;;5010091;28;20205;-57
2023/11/11 04:34:29;;;;;;;0.00;0.00;;;23.50;47.70;;;;;;5008023;28;20553;-54
2023/11/11 04:37:00;;;;;;;0.00;0.00;;;23.50;47.60;;;;;;5011882;28;20299;-57
2023/11/11 04:39:31;;;;;;;0.00;0.00;;;23.50;47.60;;;;;;5009293;28;20216;-56
2023/11/11 04:42:03;;;;;;;0.10;0.10;;;23.60;47.60;;;;;;5010991;28;20235;-56
2023/11/11 04:44:34;;;;;;;0.00;0.00;;;23.60;47.50;;;;;;5010555;28;20196;-53
2023/11/11 04:47:06;;;;;;;0.10;0.10;;;23.60;47.50;;;;;;5010297;28;20209;-54
2023/11/11 04:49:37;;;;;;;0.00;0.00;;;23.60;47.40;;;;;;5011363;28;20642;-52
2023/11/11 04:52:07;;;;;;;0.00;0.00;;;23.60;47.40;;;;;;5008787;28;20189;-52
2023/11/11 04:54:38;;;;;;;0.10;0.10;;;23.70;47.60;;;;;;5011388;28;20200;-57
2023/11/11 04:57:11;;;;;;;0.10;0.10;;;23.70;47.60;;;;;;5009095;28;20220;-57
2023/11/11 04:59:42;;;;;;;0.10;0.10;;;23.70;47.60;;;;;;5011989;28;20722;-54
2023/11/11 05:02:13;;;;;;;0.10;0.10;;;23.70;47.60;;;;;;5011943;28;20201;-54
2023/11/11 05:04:44;;;;;;;0.08;0.08;;;23.80;47.70;;;;;;5011764;28;20287;-55
2023/11/11 05:07:14;;;;;;;0.00;0.00;;;23.80;47.60;;;;;;5015862;28;20212;-56
2023/11/11 05:09:45;;;;;;;0.00;0.00;;;23.80;47.50;;;;;;5031095;28;20207;-55
2023/11/11 05:12:18;;;;;;;0.00;0.00;;;23.80;47.50;;;;;;5015748;28;20232;-55
2023/11/11 05:14:49;;;;;;;0.00;0.00;;;23.80;47.50;;;;;;5021724;28;20192;-56
2023/11/11 05:17:25;;;;;;;0.00;0.00;;;23.90;47.50;;;;;;5011592;28;20223;-47
2023/11/11 05:19:58;;;;;;;0.00;0.00;;;23.90;47.40;;;;;;5010885;28;20224;-55
2023/11/11 05:22:29;;;;;;;0.00;0.00;;;23.90;47.40;;;;;;5010618;28;20720;-50
2023/11/11 05:24:59;;;;;;;0.00;0.00;;;23.90;47.40;;;;;;5010924;28;20664;-53
2023/11/11 05:27:32;;;;;;;0.00;0.00;;;24.00;47.40;;;;;;5010780;28;20216;-56
2023/11/11 05:30:04;;;;;;;0.00;0.00;;;24.00;47.50;;;;;;5011574;28;20470;-55
2023/11/11 05:32:35;;;;;;;0.00;0.00;;;24.00;47.50;;;;;;5010662;28;20635;-56
2023/11/11 05:35:06;;;;;;;0.00;0.00;;;24.00;47.50;;;;;;5011081;28;20251;-56
2023/11/11 05:37:36;;;;;;;0.00;0.00;;;24.00;47.50;;;;;;5021082;28;20219;-55
2023/11/11 05:40:10;;;;;;;0.00;0.00;;;24.00;47.40;;;;;;5030536;28;20228;-56
2023/11/11 05:42:42;;;;;;;0.00;0.00;;;24.00;47.40;;;;;;5011991;28;20271;-52
2023/11/11 05:45:13;;;;;;;0.00;0.00;;;24.00;47.40;;;;;;5011048;28;20205;-53
2023/11/11 05:47:44;;;;;;;0.10;0.10;;;24.00;47.40;;;;;;5010256;28;20220;-57
2023/11/11 05:50:15;;;;;;;0.00;0.00;;;24.00;47.40;;;;;;5011174;28;20219;-56
2023/11/11 05:52:46;;;;;;;0.00;0.00;;;24.00;47.30;;;;;;5015161;28;20247;-54
2023/11/11 05:55:17;;;;;;;0.00;0.00;;;24.00;47.30;;;;;;5014497;28;20201;-55
2023/11/11 05:57:49;;;;;;;0.00;0.00;;;24.00;47.20;;;;;;5014231;28;20696;-56
2023/11/11 06:00:20;;;;;;;0.00;0.00;;;24.10;47.20;;;;;;5014474;28;20232;-57
2023/11/11 06:02:51;;;;;;;0.00;0.00;;;24.10;47.20;;;;;;5013990;28;20209;-54
2023/11/11 06:05:21;;;;;;;0.00;0.00;;;24.10;47.10;;;;;;5013683;28;20201;-54
2023/11/11 06:07:53;;;;;;;0.00;0.00;;;24.10;47.30;;;;;;5014445;28;20719;-51
2023/11/11 06:10:24;;;;;;;0.00;0.00;;;24.10;47.30;;;;;;5014030;28;20223;-54
2023/11/11 06:12:57;;;;;;;0.00;0.00;;;24.10;47.20;;;;;;5014073;28;20205;-51
2023/11/11 06:15:28;;;;;;;0.00;0.00;;;24.20;47.20;;;;;;5014757;28;20292;-51
2023/11/11 06:17:59;;;;;;;0.00;0.00;;;24.10;47.10;;;;;;5014311;28;20228;-50
2023/11/11 06:20:30;;;;;;;0.00;0.00;;;24.20;47.10;;;;;;5014369;28;20236;-55
2023/11/11 06:23:01;;;;;;;0.00;0.00;;;24.20;47.00;;;;;;5014412;28;20243;-53
2023/11/11 06:25:32;;;;;;;0.00;0.00;;;24.20;47.00;;;;;;5014032;28;20204;-54
2023/11/11 06:28:05;;;;;;;0.10;0.10;;;24.20;46.90;;;;;;5014401;28;20651;-56
2023/11/11 06:30:35;;;;;;;0.00;0.00;;;24.20;46.90;;;;;;5014436;28;20193;-57
2023/11/11 06:33:06;;;;;;;0.03;0.03;;;24.20;46.90;;;;;;5022623;28;20192;-55
2023/11/11 06:35:38;;;;;;;0.00;0.00;;;24.20;47.10;;;;;;5033976;28;20204;-56
2023/11/11 06:38:10;;;;;;;0.10;0.10;;;24.20;47.10;;;;;;5033739;28;20223;-56
2023/11/11 06:40:42;;;;;;;0.00;0.00;;;24.20;47.10;;;;;;5031340;28;20228;-57
2023/11/11 06:43:15;;;;;;;0.00;0.00;;;24.20;47.10;;;;;;5013980;28;20200;-54
2023/11/11 06:45:47;;;;;;;0.00;0.00;;;24.20;47.10;;;;;;5014190;28;20197;-56
2023/11/11 06:48:18;;;;;;;0.10;0.10;;;24.20;47.10;;;;;;5013772;28;20685;-56
2023/11/11 06:50:48;;;;;;;0.00;0.00;;;24.20;47.70;;;;;;5013393;28;20628;-55
2023/11/11 06:53:19;;;;;;;0.00;0.00;;;24.20;47.10;;;;;;5013535;28;20207;-57
2023/11/11 06:55:50;;;;;;;0.08;0.08;;;24.20;47.10;;;;;;5013777;28;20197;-54
2023/11/11 06:58:22;;;;;;;0.00;0.00;;;24.30;47.00;;;;;;5011954;28;20229;-52
2023/11/11 07:00:53;;;;;;;0.00;0.00;;;24.30;47.00;;;;;;5014486;28;20232;-57
2023/11/11 07:03:24;;;;;;;0.10;0.10;;;24.30;46.90;;;;;;5013386;28;20197;-55
2023/11/11 07:05:56;;;;;;;0.00;0.00;;;24.20;46.90;;;;;;5013338;28;20204;-56
2023/11/11 07:08:27;;;;;;;0.00;0.00;;;24.20;46.90;;;;;;5013348;28;20217;-57
2023/11/11 07:10:58;;;;;;;0.10;0.10;;;24.20;46.90;;;;;;5021857;28;20211;-53
2023/11/11 07:13:31;;;;;;;0.00;0.00;;;24.20;46.90;;;;;;5013652;28;20274;-57
2023/11/11 07:16:02;;;;;;;0.00;0.00;;;24.20;46.80;;;;;;5024657;28;20250;-57
2023/11/11 07:18:32;;;;;;;0.00;0.00;;;24.20;46.80;;;;;;5032475;28;20312;-57
2023/11/11 07:21:04;;;;;;;0.00;0.00;;;24.20;46.80;;;;;;5032959;28;20224;-57
2023/11/11 07:23:35;;;;;;;0.00;0.00;;;24.20;46.80;;;;;;5023644;28;20224;-56
2023/11/11 07:26:06;;;;;;;0.00;0.00;;;24.20;46.80;;;;;;5012563;28;20197;-56
2023/11/11 07:28:39;;;;;;;0.00;0.00;;;24.20;46.90;;;;;;5013328;28;20200;-57
2023/11/11 07:31:09;;;;;;;0.00;0.00;;;24.20;47.00;;;;;;5031678;28;20188;-53
2023/11/11 07:33:40;;;;;;;0.00;0.00;;;24.20;46.90;;;;;;5032923;28;20566;-56
2023/11/11 07:36:11;;;;;;;0.00;0.00;;;24.20;47.00;;;;;;5032989;28;20203;-57
2023/11/11 07:38:42;;;;;;;0.00;0.00;;;24.20;47.00;;;;;;5032751;28;20277;-57
2023/11/11 07:41:13;;;;;;;0.00;0.00;;;24.20;47.00;;;;;;5025241;28;20228;-57
2023/11/11 07:43:45;;;;;;;0.00;0.00;;;24.10;46.90;;;;;;5013294;28;20196;-53
2023/11/11 07:46:19;;;;;;;0.00;0.00;;;24.10;46.90;;;;;;5012870;28;20197;-54
2023/11/11 07:48:50;;;;;;;0.00;0.00;;;24.20;46.90;;;;;;5012827;28;20201;-57
2023/11/11 07:51:22;;;;;;;0.00;0.00;;;24.10;46.80;;;;;;5012876;28;20676;-56
2023/11/11 07:53:52;;;;;;;0.00;0.00;;;24.10;46.90;;;;;;5012887;28;20201;-54
2023/11/11 07:56:23;;;;;;;0.00;0.00;;;24.10;46.80;;;;;;5012182;28;20204;-57
2023/11/11 07:58:55;;;;;;;0.00;0.00;;;24.00;47.30;;;;;;5012704;28;20201;-56
2023/11/11 08:01:26;;;;;;;0.00;0.00;;;24.00;46.70;;;;;;5013106;28;20681;-57
2023/11/11 08:03:57;;;;;;;0.00;0.00;;;24.00;46.70;;;;;;5012472;28;20202;-55
2023/11/11 08:06:27;;;;;;;0.00;0.00;;;24.00;46.80;;;;;;5012212;28;20665;-55
2023/11/11 08:08:58;;;;;;;0.00;0.00;;;24.00;46.80;;;;;;5011343;28;20548;-56
2023/11/11 08:11:29;;;;;;;0.00;0.00;;;23.90;46.70;;;;;;5011173;28;20689;-50
2023/11/11 08:14:02;;;;;;;0.00;0.00;;;23.90;46.80;;;;;;5011830;28;20200;-55
2023/11/11 08:16:34;;;;;;;0.00;0.00;;;23.90;46.80;;;;;;5012310;28;20279;-57
2023/11/11 08:19:05;;;;;;;0.00;0.00;;;23.90;46.80;;;;;;5011769;28;20657;-56
2023/11/11 08:21:36;;;;;;;0.00;0.00;;;23.90;46.90;;;;;;5011931;28;20682;-57
2023/11/11 08:24:07;;;;;;;0.00;0.00;;;23.80;46.80;;;;;;5012031;28;20197;-57
2023/11/11 08:26:38;;;;;;;0.00;0.00;;;23.90;46.80;;;;;;5011544;28;20221;-57
2023/11/11 08:29:10;;;;;;;0.00;0.00;;;23.80;46.80;;;;;;5011959;28;20232;-55
2023/11/11 08:31:43;;;;;;;0.00;0.00;;;23.80;46.80;;;;;;5026872;28;20196;-57
2023/11/11 08:34:14;;;;;;;0.10;0.10;;;23.80;46.80;;;;;;5031417;28;20292;-54
2023/11/11 08:36:44;;;;;;;0.00;0.00;;;23.80;46.80;;;;;;5031766;28;20216;-57
2023/11/11 08:39:15;;;;;;;0.00;0.00;;;23.80;46.80;;;;;;5031642;28;20196;-55
2023/11/11 08:41:45;;;;;;;0.00;0.00;;;23.70;46.70;;;;;;5020131;28;20232;-57
2023/11/11 08:44:18;;;;;;;0.00;0.00;;;23.70;46.70;;;;;;5012045;28;20197;-58
2023/11/11 08:46:49;;;;;;;0.00;0.00;;;23.70;46.80;;;;;;5011780;28;20220;-56
2023/11/11 08:49:19;;;;;;;0.05;0.05;;;23.60;46.70;;;;;;5011334;28;20196;-57
2023/11/11 08:51:50;;;;;;;0.00;0.00;;;23.60;46.80;;;;;;5010831;28;20441;-55
2023/11/11 08:54:21;;;;;;;0.00;0.00;;;23.60;46.70;;;;;;5011650;28;20205;-55
2023/11/11 08:56:51;;;;;;;0.00;0.00;;;23.60;46.80;;;;;;5011063;28;20225;-56
2023/11/11 08:59:24;;;;;;;0.00;0.00;;;23.50;47.40;;;;;;5011689;28;20291;-58
2023/11/11 09:01:57;;;;;;;0.00;0.00;;;23.50;46.80;;;;;;5019455;28;20590;-56
2023/11/11 09:04:28;;;;;;;0.00;0.00;;;23.50;46.80;;;;;;5031058;28;20571;-58
2023/11/11 09:06:59;;;;;;;0.10;0.10;;;23.50;46.90;;;;;;5031329;28;20220;-56
2023/11/11 09:09:30;;;;;;;0.00;0.00;;;23.50;46.90;;;;;;5030789;28;20200;-56
2023/11/11 09:12:01;;;;;;;0.00;0.00;;;23.50;46.90;;;;;;5016920;28;20211;-56
2023/11/11 09:14:34;;;;;;;0.00;0.00;;;23.40;46.90;;;;;;5030287;28;20192;-56
2023/11/11 09:17:05;;;;;;;0.00;0.00;;;23.40;46.90;;;;;;5030560;28;20555;-57
2023/11/11 09:19:36;;;;;;;0.03;0.03;;;23.40;46.80;;;;;;5030618;28;20574;-56
2023/11/11 09:22:07;;;;;;;0.00;0.00;;;23.40;46.80;;;;;;5022435;28;20578;-58
2023/11/11 09:24:37;;;;;;;0.00;0.00;;;23.40;46.80;;;;;;5011136;28;20192;-56
2023/11/11 09:27:08;;;;;;;0.00;0.00;;;23.40;46.90;;;;;;5011380;28;20227;-54
2023/11/11 09:29:41;;;;;;;0.00;0.00;;;23.30;46.80;;;;;;5014739;28;20247;-52
2023/11/11 09:32:12;;;;;;;0.00;0.00;;;23.30;46.80;;;;;;5006417;28;20204;-53
2023/11/11 09:34:45;;;;;;;0.10;0.10;;;23.30;46.80;;;;;;4998133;28;20209;-56
2023/11/11 09:37:16;;;;;;;0.00;0.00;;;23.30;46.90;;;;;;5014293;28;20228;-55
2023/11/11 09:39:47;;;;;;;0.00;0.00;;;23.20;46.80;;;;;;5013940;28;20196;-53
2023/11/11 09:42:20;;;;;;;0.00;0.00;;;23.20;46.80;;;;;;5014133;28;20208;-51
2023/11/11 09:44:55;;;;;;;0.00;0.00;;;23.20;46.90;;;;;;5014249;28;20231;-52
2023/11/11 09:47:28;;;;;;;0.00;0.00;;;23.10;46.90;;;;;;5013576;28;20696;-49
2023/11/11 09:50:00;;;;;;;0.00;0.00;;;23.10;46.90;;;;;;5013118;28;20288;-56
2023/11/11 09:52:34;;;;;;;0.00;0.00;;;23.10;46.90;;;;;;5014046;28;20200;-57
2023/11/11 09:55:08;;;;;;;0.00;0.00;;;23.10;46.90;;;;;;5013437;28;20196;-53
2023/11/11 09:57:40;;;;;;;0.00;0.00;;;23.10;47.00;;;;;;4993892;28;20225;-57
2023/11/11 10:00:16;;;;;;;0.00;0.00;;;23.00;47.00;;;;;;4995616;28;20204;-54
2023/11/11 10:02:47;;;;;;;0.00;0.00;;;23.00;47.10;;;;;;4994711;28;20197;-56
2023/11/11 10:05:18;;;;;;;0.00;0.00;;;23.00;47.10;;;;;;4994489;28;20202;-55
2023/11/11 10:07:49;;;;;;;0.00;0.00;;;23.00;47.20;;;;;;5014143;28;20351;-57
2023/11/11 10:10:20;;;;;;;0.00;0.00;;;23.00;47.30;;;;;;5013938;28;20200;-56
2023/11/11 10:12:51;;;;;;;0.10;0.10;;;23.00;47.30;;;;;;4994090;28;20201;-56
2023/11/11 10:15:25;;;;;;;0.00;0.00;;;23.00;47.30;;;;;;4994928;28;20197;-51
2023/11/11 10:17:56;;;;;;;0.00;0.00;;;22.90;47.40;;;;;;5013648;28;20224;-57
2023/11/11 10:20:30;;;;;;;0.00;0.00;;;22.90;47.40;;;;;;5010784;28;20226;-57
2023/11/11 10:23:01;;;;;;;0.10;0.10;;;22.90;47.40;;;;;;5014647;28;20278;-55
2023/11/11 10:25:31;;;;;;;0.00;0.00;;;22.90;47.40;;;;;;5027393;28;20197;-57
2023/11/11 10:28:02;;;;;;;0.00;0.00;;;22.90;47.50;;;;;;5013405;28;20268;-54
2023/11/11 10:30:34;;;;;;;0.00;0.00;;;22.90;47.50;;;;;;5012834;28;20201;-53
2023/11/11 10:33:05;;;;;;;0.00;0.00;;;22.80;47.50;;;;;;5013458;28;20200;-57
2023/11/11 10:35:36;;;;;;;0.00;0.00;;;22.80;47.50;;;;;;5012735;28;20228;-58
2023/11/11 10:38:09;;;;;;;0.00;0.00;;;22.80;48.20;;;;;;5013184;28;20221;-56
2023/11/11 10:40:40;;;;;;;0.00;0.00;;;22.80;47.50;;;;;;5013263;28;20217;-54
2023/11/11 10:43:12;;;;;;;0.00;0.00;;;22.70;47.60;;;;;;5013317;28;20197;-57
2023/11/11 10:45:46;;;;;;;0.10;0.10;;;22.70;47.60;;;;;;5013075;28;20220;-54
2023/11/11 10:48:18;;;;;;;0.00;0.00;;;22.70;47.60;;;;;;5013569;28;20720;-51
2023/11/11 10:50:49;;;;;;;0.00;0.00;;;22.70;47.50;;;;;;5012971;28;20236;-54
2023/11/11 10:53:21;;;;;;;0.00;0.00;;;22.70;47.60;;;;;;5012981;28;20400;-52
2023/11/11 10:55:53;;;;;;;0.00;0.00;;;22.60;47.60;;;;;;5023134;28;20291;-48
2023/11/11 10:58:24;;;;;;;0.00;0.00;;;22.70;47.60;;;;;;5012090;28;20687;-57
2023/11/11 11:00:58;;;;;;;0.10;0.10;;;22.60;47.60;;;;;;5013676;28;20220;-55
2023/11/11 11:03:31;;;;;;;0.00;0.00;;;22.60;47.60;;;;;;5012859;28;20200;-57
2023/11/11 11:06:15;;;;;;;0.10;0.10;;;22.60;47.60;;;;;;5013121;28;20201;-48
2023/11/11 11:08:53;;;;;;;0.00;0.00;;;22.60;47.60;;;;;;5012766;28;20539;-52
2023/11/11 11:11:30;;;;;;;0.03;0.03;;;22.50;47.50;;;;;;5012725;28;20199;-46
2023/11/11 11:14:09;;;;;;;0.00;0.00;;;22.50;47.60;;;;;;5015961;28;20192;-49
2023/11/11 11:16:45;;;;;;;0.10;0.10;;;22.50;47.60;;;;;;5012878;28;20576;-44
2023/11/11 11:19:18;;;;;;;0.00;0.00;;;22.50;47.60;;;;;;5011979;28;20201;-53
2023/11/11 11:21:52;;;;;;;0.00;0.00;;;22.40;47.60;;;;;;5005614;28;20220;-52
2023/11/11 11:24:24;;;;;;;0.00;0.00;;;22.40;47.60;;;;;;5012814;28;20275;-58
2023/11/11 11:26:55;;;;;;;0.00;0.00;;;22.40;47.60;;;;;;5009821;28;20707;-53
2023/11/11 11:29:25;;;;;;;0.00;0.00;;;22.40;47.60;;;;;;5012673;28;20201;-51
2023/11/11 11:32:12;;;;;;;0.00;0.00;;;22.40;47.70;;;;;;5012268;28;20753;-56
2023/11/11 11:34:44;;;;;;;0.00;0.00;;;22.30;47.60;;;;;;5012337;28;20547;-56
2023/11/11 11:37:15;;;;;;;0.10;0.10;;;22.30;47.60;;;;;;5021791;28;20699;-56
2023/11/11 11:39:59;;;;;;;0.10;0.10;;;22.30;47.70;;;;;;5019170;28;20615;-56
2023/11/11 11:42:34;;;;;;;0.10;0.10;;;22.30;47.60;;;;;;5012706;28;20232;-55
2023/11/11 11:45:05;;;;;;;0.10;0.10;;;22.30;47.60;;;;;;5012919;28;20200;-56
2023/11/11 11:47:38;;;;;;;0.00;0.00;;;22.20;47.60;;;;;;5013049;28;20224;-50
2023/11/11 11:50:09;;;;;;;0.10;0.10;;;22.20;47.60;;;;;;5012059;28;20193;-55
2023/11/11 11:52:41;;;;;;;0.00;0.00;;;22.20;47.60;;;;;;5012645;28;20653;-57
2023/11/11 11:55:12;;;;;;;0.00;0.00;;;22.20;47.60;;;;;;5012585;28;20200;-48
2023/11/11 11:57:56;;;;;;;0.10;0.10;;;22.20;47.60;;;;;;5011338;28;20221;-57
2023/11/11 12:00:27;;;;;;;0.00;0.00;;;22.10;47.60;;;;;;5010852;28;20208;-57
2023/11/11 12:03:00;;;;;;;0.03;0.03;;;22.10;47.60;;;;;;5012441;28;20223;-56
2023/11/11 12:05:31;;;;;;;0.10;0.10;;;22.10;47.70;;;;;;5012316;28;20216;-56
2023/11/11 12:08:01;;;;;;;0.00;0.00;;;22.10;47.80;;;;;;5010101;28;20680;-51
2023/11/11 12:10:46;;;;;;;0.00;0.00;;;22.00;47.70;;;;;;5011633;28;20544;-56
2023/11/11 12:13:17;;;;;;;0.10;0.10;;;22.00;47.70;;;;;;5011527;28;20219;-56
2023/11/11 12:15:54;;;;;;;0.00;0.00;;;22.00;47.70;;;;;;5012199;28;20288;-56
2023/11/11 12:18:29;;;;;;;0.03;0.03;;;22.00;47.70;;;;;;5009272;28;20213;-56
2023/11/11 12:21:00;;;;;;;0.00;0.00;;;22.00;47.70;;;;;;5011847;28;20246;-57
2023/11/11 12:23:31;;;;;;;0.00;0.00;;;22.00;47.70;;;;;;5011758;28;20192;-55
2023/11/11 12:26:02;;;;;;;0.03;0.03;;;21.90;47.70;;;;;;5012077;28;20247;-55
2023/11/11 12:28:32;;;;;;;0.00;0.00;;;21.90;47.70;;;;;;5011792;28;20216;-56
2023/11/11 12:31:09;;;;;;;0.00;0.00;;;21.90;47.70;;;;;;5009419;28;20192;-55
2023/11/11 12:33:41;;;;;;;0.00;0.00;;;21.90;47.70;;;;;;5024029;28;20188;-55
2023/11/11 12:36:14;;;;;;;0.00;0.00;;;21.80;47.60;;;;;;5031185;28;20546;-50
2023/11/11 12:38:45;;;;;;;0.00;0.00;;;21.90;47.70;;;;;;5031502;28;20278;-56
2023/11/11 12:41:16;;;;;;;0.00;0.00;;;21.80;47.70;;;;;;5024715;28;20286;-58
2023/11/11 12:43:47;;;;;;;0.00;0.00;;;21.80;47.80;;;;;;5012154;28;20193;-57
2023/11/11 12:46:17;;;;;;;0.00;0.00;;;21.70;47.70;;;;;;5011416;28;20574;-52
2023/11/11 12:48:50;;;;;;;0.00;0.00;;;21.80;47.80;;;;;;5011436;28;20200;-54
2023/11/11 12:51:35;;;;;;;0.00;0.00;;;21.80;47.80;;;;;;5011731;28;20197;-56
2023/11/11 12:54:05;;;;;;;0.00;0.00;;;21.70;47.80;;;;;;5011333;28;20280;-55
2023/11/11 12:56:36;;;;;;;0.00;0.00;;;21.70;47.80;;;;;;5026203;28;20243;-54
2023/11/11 12:59:11;;;;;;;0.00;0.00;;;21.60;47.70;;;;;;5031689;28;20204;-55
2023/11/11 13:01:42;;;;;;;0.00;0.00;;;21.70;47.80;;;;;;5031904;28;20227;-57
2023/11/11 13:04:16;;;;;;;0.00;0.00;;;21.70;47.80;;;;;;5031359;28;20204;-55
2023/11/11 13:06:47;;;;;;;0.00;0.00;;;21.60;47.70;;;;;;5030926;28;20270;-58
2023/11/11 13:09:21;;;;;;;0.00;0.00;;;21.60;47.80;;;;;;5031026;28;20200;-57
2023/11/11 13:11:53;;;;;;;0.00;0.00;;;21.60;47.80;;;;;;5019652;28;20231;-58